Time;durP1;ratioP1;P1;durP2;ratioP2;P2;SDS_P1;SDS_P2;PMS_P1;PMS_P2;Temp;Humidity;BMP_temperature;BMP_pressure;BME280_temperature;BME280_humidity;BME280_pressure;Samples;Min_cycle;Max_cycle;Signal;HPM_P1;HPM_P2
2022/06/14 00:00:57;;;;;;;9.00;4.20;;;;;;;18.93;50.44;98019.66;5071105;28;20673;-71
2022/06/14 00:03:24;;;;;;;6.47;3.93;;;;;;;18.87;50.80;98021.22;5063944;28;20652;-71
2022/06/14 00:05:50;;;;;;;6.67;3.80;;;;;;;18.95;50.65;98022.16;5071331;28;20186;-72
2022/06/14 00:08:16;;;;;;;8.03;4.03;;;;;;;18.92;50.79;98022.47;5071076;28;20464;-71
2022/06/14 00:10:42;;;;;;;6.80;3.83;;;;;;;18.86;50.75;98022.25;5070209;28;20271;-71
2022/06/14 00:13:09;;;;;;;4.17;3.57;;;;;;;18.81;50.74;98027.28;5070823;28;20850;-71
2022/06/14 00:15:34;;;;;;;9.93;4.03;;;;;;;18.73;50.79;98024.72;5069691;28;20498;-72
2022/06/14 00:18:00;;;;;;;9.13;3.50;;;;;;;18.75;51.21;98021.88;5071323;28;20433;-72
2022/06/14 00:20:25;;;;;;;5.17;3.90;;;;;;;18.74;50.98;98021.06;5071182;28;20202;-72
2022/06/14 00:22:51;;;;;;;7.43;3.90;;;;;;;18.68;51.26;98019.13;5070972;28;20194;-72
2022/06/14 00:25:29;;;;;;;10.73;3.60;;;;;;;18.67;51.49;98018.31;5070922;28;20222;-71
2022/06/14 00:27:55;;;;;;;6.90;3.80;;;;;;;18.62;51.66;98012.72;5070614;28;20311;-71
2022/06/14 00:30:22;;;;;;;4.10;3.40;;;;;;;18.49;51.64;98017.84;5061539;28;20487;-71
2022/06/14 00:32:48;;;;;;;9.63;3.93;;;;;;;18.56;51.76;98011.63;5061940;28;20171;-72
2022/06/14 00:35:13;;;;;;;5.03;3.70;;;;;;;18.42;51.89;98009.81;5059560;28;20441;-72
2022/06/14 00:37:39;;;;;;;6.57;3.97;;;;;;;18.46;51.84;98005.78;5070716;28;20198;-71
2022/06/14 00:40:05;;;;;;;5.00;3.70;;;;;;;18.49;51.69;98010.72;5069396;28;20193;-71
2022/06/14 00:42:32;;;;;;;9.40;3.53;;;;;;;18.50;51.59;98009.72;5070273;28;20191;-71
2022/06/14 00:45:08;;;;;;;7.57;3.97;;;;;;;18.45;51.84;98012.09;5070717;28;20417;-71
2022/06/14 00:47:44;;;;;;;7.03;3.80;;;;;;;18.30;52.03;98016.56;5070698;28;20474;-71
2022/06/14 00:50:23;;;;;;;11.70;4.40;;;;;;;18.35;51.88;98011.56;5065901;28;20464;-71
2022/06/14 00:52:55;;;;;;;9.03;3.70;;;;;;;18.30;52.16;98011.25;5063920;28;20933;-71
2022/06/14 00:55:25;;;;;;;12.00;4.07;;;;;;;18.27;52.01;98010.63;5068812;28;20460;-71
2022/06/14 00:57:56;;;;;;;10.57;4.27;;;;;;;18.11;52.52;98011.63;5070438;28;20451;-70
2022/06/14 01:00:29;;;;;;;7.47;4.30;;;;;;;18.17;52.54;98010.06;5070536;28;20502;-71
2022/06/14 01:02:56;;;;;;;6.03;3.60;;;;;;;18.19;52.04;98009.91;5066362;28;20916;-71
2022/06/14 01:05:27;;;;;;;4.50;3.43;;;;;;;18.21;52.21;98008.72;5073600;28;20493;-71
2022/06/14 01:07:56;;;;;;;6.90;4.07;;;;;;;18.12;52.56;98001.84;5072477;28;20504;-70
2022/06/14 01:10:21;;;;;;;7.60;4.00;;;;;;;18.12;52.48;97996.53;5073666;28;20460;-72
2022/06/14 01:12:49;;;;;;;6.10;3.97;;;;;;;18.03;52.54;97994.94;5074401;28;20562;-71
2022/06/14 01:15:19;;;;;;;4.53;3.50;;;;;;;18.02;52.70;98002.09;5074292;28;20182;-71
2022/06/14 01:17:48;;;;;;;5.37;3.93;;;;;;;18.01;52.47;97994.34;5074309;28;20424;-71
2022/06/14 01:20:17;;;;;;;5.50;3.00;;;;;;;17.98;52.60;98000.00;5062563;28;20425;-71
2022/06/14 01:22:43;;;;;;;9.57;3.87;;;;;;;17.91;52.86;97984.75;5074666;28;20450;-71
2022/06/14 01:25:09;;;;;;;5.47;4.07;;;;;;;17.94;52.78;97989.72;5039823;28;20424;-70
2022/06/14 01:27:38;;;;;;;7.17;4.10;;;;;;;17.93;52.85;97993.34;5072702;28;20447;-71
2022/06/14 01:30:03;;;;;;;6.93;4.20;;;;;;;17.91;52.87;97997.22;5064524;28;20504;-71
2022/06/14 01:32:32;;;;;;;8.97;3.93;;;;;;;17.88;52.84;97995.75;5060597;28;20510;-71
2022/06/14 01:35:01;;;;;;;6.70;3.93;;;;;;;17.87;52.72;97998.56;5068790;28;20194;-71
2022/06/14 01:37:26;;;;;;;13.40;4.00;;;;;;;17.87;53.01;97993.25;5073127;28;20482;-71
2022/06/14 01:39:53;;;;;;;8.60;4.30;;;;;;;17.87;52.67;97991.44;5070239;28;20421;-71
2022/06/14 01:42:36;;;;;;;5.80;3.70;;;;;;;17.87;52.99;97991.44;5072488;28;20209;-70
2022/06/14 01:45:28;;;;;;;9.23;4.53;;;;;;;17.72;53.16;97993.22;5074203;28;20932;-72
2022/06/14 01:48:13;;;;;;;9.03;3.70;;;;;;;17.73;53.01;97993.03;5073761;28;21221;-72
2022/06/14 01:54:07;;;;;;;8.50;4.20;;;;;;;17.67;53.18;97993.78;5054685;28;20437;-71
2022/06/14 01:57:11;;;;;;;6.73;3.97;;;;;;;17.58;53.73;97995.66;5072631;28;20421;-72
2022/06/14 01:59:58;;;;;;;9.93;3.90;;;;;;;17.60;53.45;98003.41;5039213;28;20491;-71
2022/06/14 02:02:36;;;;;;;6.60;3.93;;;;;;;17.62;53.44;97999.59;5059421;28;20451;-71
2022/06/14 02:05:10;;;;;;;5.03;3.70;;;;;;;17.61;53.37;97995.31;5066498;28;20473;-71
2022/06/14 02:08:05;;;;;;;4.90;3.83;;;;;;;17.47;54.04;98004.84;5073759;28;20785;-71
2022/06/14 02:10:36;;;;;;;6.67;3.63;;;;;;;17.49;53.65;98007.31;5057722;28;20437;-71
2022/06/14 02:13:10;;;;;;;5.73;4.13;;;;;;;17.45;54.08;97992.78;5071766;28;20443;-71
2022/06/14 02:15:43;;;;;;;4.53;4.00;;;;;;;17.49;53.86;98000.19;5056862;28;20432;-72
2022/06/14 02:18:16;;;;;;;9.73;4.53;;;;;;;17.47;53.87;97988.13;5056223;28;20916;-72
2022/06/14 02:20:53;;;;;;;7.20;4.17;;;;;;;17.27;54.28;97987.78;5072675;28;20803;-72
2022/06/14 02:23:20;;;;;;;5.60;4.20;;;;;;;17.17;54.59;97988.84;5073250;28;20459;-72
2022/06/14 02:25:51;;;;;;;7.60;4.60;;;;;;;17.14;54.79;97998.94;5073790;28;20428;-71
2022/06/14 02:28:21;;;;;;;6.70;4.53;;;;;;;17.10;54.62;97981.75;5073655;28;20785;-71
2022/06/14 02:31:07;;;;;;;9.47;4.30;;;;;;;17.13;54.45;97978.78;5060079;28;20459;-71
2022/06/14 02:33:42;;;;;;;4.60;4.20;;;;;;;17.18;54.39;97979.91;5065929;28;20456;-70
2022/06/14 02:36:20;;;;;;;7.73;4.70;;;;;;;17.07;54.61;97982.09;5069308;28;20478;-70
2022/06/14 02:38:53;;;;;;;5.80;4.40;;;;;;;17.02;54.66;97983.44;5068449;28;20782;-70
2022/06/14 02:41:33;;;;;;;8.63;4.87;;;;;;;16.98;54.69;97986.63;5068744;28;20444;-72
2022/06/14 02:44:09;;;;;;;6.83;4.77;;;;;;;16.99;54.92;97986.47;5071402;28;20432;-72
2022/06/14 02:46:44;;;;;;;7.17;4.70;;;;;;;17.06;54.51;97981.28;5054644;28;20922;-72
2022/06/14 02:49:20;;;;;;;6.07;4.57;;;;;;;17.02;54.27;97983.44;5068990;28;20827;-71
2022/06/14 02:51:51;;;;;;;7.87;5.20;;;;;;;16.99;54.60;97980.31;5064120;28;20448;-72
2022/06/14 02:54:24;;;;;;;7.33;4.80;;;;;;;16.89;54.83;97983.16;5071056;28;21102;-71
2022/06/14 02:57:08;;;;;;;6.53;4.17;;;;;;;16.88;54.63;97985.00;5070828;28;20432;-73
2022/06/14 02:59:45;;;;;;;8.37;4.40;;;;;;;16.93;54.47;97987.13;5058835;28;20440;-72
2022/06/14 03:02:28;;;;;;;7.53;4.50;;;;;;;16.74;54.87;97978.63;5074808;28;20489;-73
2022/06/14 03:05:34;;;;;;;6.30;4.50;;;;;;;16.82;54.48;97983.03;5064417;28;20429;-72
2022/06/14 03:08:20;;;;;;;6.87;5.13;;;;;;;16.80;54.26;97977.09;5050399;28;20429;-73
2022/06/14 03:10:58;;;;;;;8.50;5.43;;;;;;;16.77;54.70;97987.19;5058470;28;20445;-72
2022/06/14 03:13:31;;;;;;;10.27;4.87;;;;;;;16.74;54.81;97986.56;5051117;28;20432;-72
2022/06/14 03:16:27;;;;;;;6.53;3.80;;;;;;;16.76;54.73;97974.97;5050627;28;20883;-72
2022/06/14 03:19:01;;;;;;;7.20;4.87;;;;;;;16.76;54.63;97975.78;5038426;28;20772;-72
2022/06/14 03:21:38;;;;;;;9.83;4.47;;;;;;;16.70;54.86;97981.75;5055133;28;20481;-72
2022/06/14 03:24:09;;;;;;;9.20;5.27;;;;;;;16.67;55.02;97984.78;5053917;28;20460;-70
2022/06/14 03:26:46;;;;;;;8.40;4.80;;;;;;;16.56;55.19;97985.97;5053976;28;20441;-72
2022/06/14 03:29:45;;;;;;;9.90;5.47;;;;;;;16.53;55.01;97976.56;5056587;28;20544;-72
2022/06/14 03:32:30;;;;;;;9.33;4.43;;;;;;;16.48;55.44;97984.16;5054055;28;20446;-71
2022/06/14 03:35:02;;;;;;;12.57;4.87;;;;;;;16.56;55.14;97980.66;5035856;28;20450;-71
2022/06/14 03:37:28;;;;;;;8.00;4.93;;;;;;;16.55;55.22;97985.16;5063657;28;20465;-70
2022/06/14 03:40:01;;;;;;;9.77;4.57;;;;;;;16.55;55.22;97990.44;5053282;28;20448;-70
2022/06/14 03:42:26;;;;;;;6.77;4.33;;;;;;;16.55;55.31;97985.16;5051114;28;20743;-70
2022/06/14 03:44:52;;;;;;;5.97;4.50;;;;;;;16.53;55.31;97983.66;5066913;28;20428;-71
2022/06/14 03:47:25;;;;;;;18.57;5.17;;;;;;;16.34;55.83;97980.44;5047575;28;20179;-70
2022/06/14 03:49:54;;;;;;;9.53;5.03;;;;;;;16.16;56.44;97993.03;5052766;28;20273;-71
2022/06/14 03:52:37;;;;;;;7.83;5.07;;;;;;;16.20;56.42;97986.41;5063913;28;20866;-72
2022/06/14 03:55:26;;;;;;;8.60;5.17;;;;;;;16.24;56.03;97977.16;5038691;28;20429;-71
2022/06/14 03:57:58;;;;;;;11.53;5.17;;;;;;;16.40;56.11;97990.31;5050056;28;20921;-70
2022/06/14 04:00:32;;;;;;;13.07;5.47;;;;;;;16.37;55.79;97990.69;5060078;28;20508;-71
2022/06/14 04:03:04;;;;;;;9.03;4.63;;;;;;;16.33;55.96;97992.00;5053896;28;20455;-70
2022/06/14 04:05:32;;;;;;;5.13;4.30;;;;;;;16.45;56.46;97981.03;5043366;28;20944;-71
2022/06/14 04:08:45;;;;;;;11.70;5.33;;;;;;;16.39;56.12;97980.72;5044543;28;20433;-72
2022/06/14 04:11:25;;;;;;;8.30;5.60;;;;;;;16.42;56.31;97982.22;5054258;28;20457;-72
2022/06/14 04:14:16;;;;;;;11.20;5.07;;;;;;;16.45;56.36;97979.22;5050050;28;20455;-72
2022/06/14 04:16:51;;;;;;;7.80;5.07;;;;;;;16.54;56.38;97980.00;5049827;28;20413;-72
2022/06/14 04:19:19;;;;;;;9.73;5.30;;;;;;;16.57;56.11;97979.69;5060940;28;20455;-71
2022/06/14 04:22:12;;;;;;;6.50;4.93;;;;;;;16.52;56.50;97979.34;5068032;28;20448;-72
2022/06/14 04:24:41;;;;;;;6.20;5.07;;;;;;;16.61;56.45;97978.34;5060184;28;20429;-73
2022/06/14 04:27:14;;;;;;;8.17;4.47;;;;;;;16.61;56.48;97983.63;5053130;28;20429;-72
2022/06/14 04:29:58;;;;;;;8.83;5.30;;;;;;;16.62;56.22;97977.34;5056087;28;20464;-71
2022/06/14 04:32:42;;;;;;;6.53;5.10;;;;;;;16.69;56.34;97986.25;5048373;28;20458;-72
2022/06/14 04:35:11;;;;;;;7.83;4.90;;;;;;;16.72;56.60;97983.25;5063560;28;20940;-71
2022/06/14 04:37:41;;;;;;;7.10;5.17;;;;;;;16.80;56.70;97989.50;5051243;28;20437;-71
2022/06/14 04:40:14;;;;;;;6.07;4.80;;;;;;;16.85;56.72;97993.28;5054707;28;20920;-71
2022/06/14 04:43:09;;;;;;;7.80;5.40;;;;;;;16.91;56.22;97989.09;5062599;28;20431;-71
2022/06/14 04:45:35;;;;;;;11.60;5.07;;;;;;;17.00;56.38;97987.28;5047920;28;20438;-71
2022/06/14 04:48:13;;;;;;;7.97;4.80;;;;;;;17.08;56.02;97983.75;5055560;28;20478;-70
2022/06/14 04:50:43;;;;;;;8.90;5.50;;;;;;;17.14;55.92;97988.34;5046486;28;20230;-71
2022/06/14 04:53:19;;;;;;;6.73;5.57;;;;;;;17.15;56.31;97984.69;5055443;28;20505;-70
2022/06/14 04:55:50;;;;;;;12.13;5.50;;;;;;;17.22;56.05;97983.00;5055358;28;20419;-70
2022/06/14 04:58:27;;;;;;;10.83;5.90;;;;;;;17.24;56.01;97991.59;5053547;28;20422;-71
2022/06/14 05:00:56;;;;;;;5.90;5.17;;;;;;;17.16;56.71;97981.88;5069579;28;20455;-71
2022/06/14 05:03:46;;;;;;;6.97;4.90;;;;;;;17.13;56.65;97986.72;5053826;28;20445;-71
2022/06/14 05:06:18;;;;;;;8.50;5.77;;;;;;;17.19;56.76;97978.06;5054988;28;20508;-71
2022/06/14 05:08:56;;;;;;;6.13;4.83;;;;;;;17.25;56.75;97982.66;5049830;28;20563;-70
2022/06/14 05:11:45;;;;;;;7.63;5.23;;;;;;;17.35;56.67;97979.75;5053673;28;20481;-71
2022/06/14 05:14:15;;;;;;;9.23;5.47;;;;;;;17.42;56.43;97978.06;5053793;28;20425;-71
2022/06/14 05:16:45;;;;;;;8.40;5.30;;;;;;;17.41;56.45;97978.22;5052712;28;20506;-71
2022/06/14 05:19:24;;;;;;;7.30;5.63;;;;;;;17.48;56.57;97974.69;5052069;28;20510;-72
2022/06/14 05:21:55;;;;;;;8.80;5.50;;;;;;;17.69;56.21;97969.72;5052320;28;20539;-71
2022/06/14 05:24:21;;;;;;;5.83;5.07;;;;;;;17.74;55.85;97977.97;5040719;28;20800;-70
2022/06/14 05:27:14;;;;;;;8.43;5.67;;;;;;;17.87;55.93;97977.34;5052620;28;20462;-70
2022/06/14 05:30:06;;;;;;;6.00;5.37;;;;;;;18.07;55.78;97983.81;5053268;28;20460;-70
2022/06/14 05:32:49;;;;;;;7.83;5.03;;;;;;;18.25;54.92;97980.81;5045862;28;20515;-72
2022/06/14 05:35:41;;;;;;;10.13;5.20;;;;;;;18.37;52.98;97969.75;5051598;28;20452;-71
2022/06/14 05:38:22;;;;;;;11.90;5.73;;;;;;;18.54;50.56;97975.69;5044206;28;20430;-71
2022/06/14 05:41:11;;;;;;;7.30;5.50;;;;;;;18.68;50.85;97974.84;5046726;28;20441;-70
2022/06/14 05:43:49;;;;;;;11.10;5.00;;;;;;;18.85;51.00;97972.78;5047466;28;20505;-71
2022/06/14 05:46:34;;;;;;;9.10;5.40;;;;;;;19.03;50.56;97976.88;5045792;28;20437;-71
2022/06/14 05:49:09;;;;;;;10.30;5.63;;;;;;;19.11;48.44;97974.13;5044527;28;20499;-72
2022/06/14 05:51:43;;;;;;;8.60;5.50;;;;;;;19.19;48.41;97984.63;5048661;28;21053;-71
2022/06/14 05:54:19;;;;;;;13.60;5.63;;;;;;;19.34;48.32;97983.75;5041096;28;20440;-71
2022/06/14 05:56:54;;;;;;;10.13;5.80;;;;;;;19.50;48.70;97977.34;5043991;28;20430;-72
2022/06/14 05:59:32;;;;;;;8.50;4.77;;;;;;;19.64;48.45;97989.75;5070386;28;20424;-70
2022/06/14 06:02:09;;;;;;;13.43;5.40;;;;;;;19.74;47.31;97978.78;5048359;28;20445;-70
2022/06/14 06:04:46;;;;;;;9.90;5.30;;;;;;;19.89;47.37;97977.91;5044919;28;20479;-70
2022/06/14 06:07:12;;;;;;;10.63;5.50;;;;;;;19.94;47.17;97978.13;5053033;28;20985;-72
2022/06/14 06:09:45;;;;;;;12.80;6.20;;;;;;;20.06;46.67;97984.56;5049163;28;20537;-70
2022/06/14 06:12:16;;;;;;;12.50;5.77;;;;;;;20.13;46.35;97983.78;5053779;28;20452;-70
2022/06/14 06:14:58;;;;;;;7.73;5.77;;;;;;;20.18;46.27;97989.34;5052278;28;20509;-74
2022/06/14 06:17:32;;;;;;;9.60;5.43;;;;;;;20.21;46.64;97983.63;5047232;28;20440;-71
2022/06/14 06:20:24;;;;;;;11.60;5.30;;;;;;;20.33;46.43;97979.41;5044557;28;20434;-72
2022/06/14 06:22:58;;;;;;;7.20;5.37;;;;;;;20.54;46.73;97973.16;5044703;28;20808;-71
2022/06/14 06:25:30;;;;;;;8.87;4.40;;;;;;;20.74;47.25;97975.09;5044398;28;20727;-73
2022/06/14 06:28:08;;;;;;;11.30;5.10;;;;;;;20.92;46.49;97974.56;5042556;28;20428;-71
2022/06/14 06:30:44;;;;;;;16.10;4.30;;;;;;;21.15;46.70;97976.09;5030420;28;20499;-71
2022/06/14 06:33:12;;;;;;;9.90;5.97;;;;;;;21.36;46.52;97972.41;5043053;28;20437;-72
2022/06/14 06:36:02;;;;;;;8.77;4.63;;;;;;;21.56;45.95;97975.09;5050025;28;20508;-71
2022/06/14 06:38:51;;;;;;;11.17;5.60;;;;;;;21.76;45.01;97974.31;5042674;28;20425;-72
2022/06/14 06:44:15;;;;;;;8.40;5.50;;;;;;;22.11;44.82;97965.25;5042898;28;20426;-71
2022/06/14 06:46:48;;;;;;;10.47;4.70;;;;;;;22.21;43.23;97970.97;5044610;28;20800;-72
2022/06/14 06:49:15;;;;;;;11.77;4.60;;;;;;;22.30;42.94;97964.38;5043425;28;20489;-72
2022/06/14 06:51:45;;;;;;;8.20;5.30;;;;;;;22.42;42.72;97967.28;5044090;28;20532;-71
2022/06/14 06:54:23;;;;;;;11.30;5.37;;;;;;;22.52;42.75;97964.13;5045303;28;20449;-71
2022/06/14 06:56:53;;;;;;;14.97;4.70;;;;;;;22.67;42.99;97958.53;5047787;28;20444;-70
2022/06/14 06:59:28;;;;;;;8.87;5.10;;;;;;;22.81;42.67;97962.78;5043313;28;20426;-71
2022/06/14 07:01:57;;;;;;;8.23;4.63;;;;;;;22.95;42.43;97965.38;5042367;28;20450;-70
2022/06/14 07:07:25;;;;;;;11.33;5.40;;;;;;;23.13;41.13;97952.13;5041691;28;20434;-70
2022/06/14 07:09:57;;;;;;;10.83;5.50;;;;;;;23.26;41.17;97961.94;5051174;28;20488;-71
2022/06/14 07:12:30;;;;;;;6.60;4.40;;;;;;;23.39;40.79;97958.38;5049864;28;20897;-71
2022/06/14 07:15:03;;;;;;;13.53;5.70;;;;;;;23.53;40.94;97960.94;5049943;28;20425;-71
2022/06/14 07:17:32;;;;;;;11.03;5.20;;;;;;;23.63;40.71;97958.59;5041939;28;20429;-71
2022/06/14 07:20:01;;;;;;;11.83;5.00;;;;;;;23.67;40.30;97961.66;5051446;28;20414;-71
2022/06/14 07:22:38;;;;;;;12.87;4.73;;;;;;;23.69;39.62;97965.72;5050931;28;20445;-70
2022/06/14 07:25:13;;;;;;;7.90;4.90;;;;;;;23.82;39.29;97961.31;5050660;28;20512;-70
2022/06/14 07:27:50;;;;;;;10.90;5.43;;;;;;;23.93;39.05;97960.59;5051492;28;20421;-70
2022/06/14 07:30:29;;;;;;;7.20;4.80;;;;;;;24.11;39.44;97967.03;5051410;28;20464;-70
2022/06/14 07:32:56;;;;;;;9.37;4.60;;;;;;;24.22;39.09;97963.63;5050516;28;20421;-70
2022/06/14 07:35:27;;;;;;;7.13;4.33;;;;;;;24.36;39.17;97962.44;5053396;28;20433;-69
2022/06/14 07:38:02;;;;;;;7.43;4.60;;;;;;;24.50;38.82;97967.66;5051563;28;20433;-71
2022/06/14 07:40:33;;;;;;;11.33;4.73;;;;;;;24.59;37.05;97963.63;5044700;28;20417;-70
2022/06/14 07:43:11;;;;;;;11.83;3.83;;;;;;;24.53;35.98;97965.34;5050394;28;20901;-70
2022/06/14 07:45:42;;;;;;;11.00;4.30;;;;;;;24.62;36.50;97960.50;5044658;28;20430;-69
2022/06/14 07:48:08;;;;;;;6.73;3.90;;;;;;;24.65;35.96;97965.41;5051126;28;20803;-70
2022/06/14 07:50:47;;;;;;;6.20;4.20;;;;;;;24.64;34.93;97957.59;5017229;28;20521;-69
2022/06/14 07:53:15;;;;;;;6.50;4.10;;;;;;;24.83;35.72;97950.38;5049297;28;20468;-70
2022/06/14 07:55:44;;;;;;;6.83;3.97;;;;;;;24.91;35.13;97962.63;5050575;28;20897;-69
2022/06/14 07:58:14;;;;;;;8.37;3.97;;;;;;;25.03;34.83;97951.97;5050133;28;20429;-69
2022/06/14 08:03:43;;;;;;;7.37;4.50;;;;;;;25.20;34.54;97952.97;5051474;28;20414;-71
2022/06/14 08:06:21;;;;;;;7.00;3.70;;;;;;;25.29;33.72;97953.44;5050299;28;20429;-70
2022/06/14 08:08:51;;;;;;;8.10;4.03;;;;;;;25.36;33.73;97956.03;5050126;28;20552;-71
2022/06/14 08:11:24;;;;;;;6.83;3.70;;;;;;;25.41;33.22;97953.50;5048249;28;20449;-69
2022/06/14 08:13:57;;;;;;;7.00;3.57;;;;;;;25.50;33.39;97952.13;5049843;28;20452;-70
2022/06/14 08:16:24;;;;;;;5.47;3.60;;;;;;;25.63;32.99;97950.25;5049605;28;20929;-70
2022/06/14 08:18:57;;;;;;;8.13;3.80;;;;;;;25.58;32.39;97957.13;5050235;28;20513;-69
2022/06/14 08:21:33;;;;;;;7.50;4.10;;;;;;;25.39;33.41;97953.69;5049833;28;20955;-70
2022/06/14 08:24:05;;;;;;;6.23;3.50;;;;;;;25.63;32.92;97955.63;5030148;28;20442;-69
2022/06/14 08:26:39;;;;;;;6.60;3.73;;;;;;;25.78;33.31;97958.69;5041983;28;20428;-70
2022/06/14 08:29:24;;;;;;;9.40;4.00;;;;;;;25.81;32.57;97958.22;5049647;28;20546;-71
2022/06/14 08:32:04;;;;;;;8.57;3.50;;;;;;;25.76;32.28;97958.09;5051034;28;20441;-70
2022/06/14 08:34:54;;;;;;;6.90;3.40;;;;;;;25.91;31.86;97953.09;5041593;28;20890;-71
2022/06/14 08:37:27;;;;;;;8.50;3.57;;;;;;;26.12;32.39;97953.56;5048734;28;20428;-71
2022/06/14 08:39:58;;;;;;;9.10;3.60;;;;;;;26.20;32.93;97955.91;5051099;28;20471;-70
2022/06/14 08:42:39;;;;;;;5.87;3.70;;;;;;;26.42;31.98;97951.75;5043328;28;20952;-70
2022/06/14 08:45:10;;;;;;;12.13;3.63;;;;;;;26.51;31.66;97948.47;5049049;28;20476;-70
2022/06/14 08:47:39;;;;;;;7.00;3.70;;;;;;;26.48;32.02;97946.25;5050558;28;20464;-73
2022/06/14 08:50:08;;;;;;;7.33;3.57;;;;;;;26.53;31.67;97943.69;5050814;28;20496;-70
2022/06/14 08:53:01;;;;;;;9.40;4.03;;;;;;;26.62;31.63;97946.81;5050875;28;20510;-72
2022/06/14 08:55:50;;;;;;;11.30;3.30;;;;;;;26.71;30.96;97928.44;5032906;28;20787;-70
2022/06/14 08:58:36;;;;;;;6.27;3.40;;;;;;;26.94;31.19;97929.44;5050249;28;20820;-70
2022/06/14 09:01:27;;;;;;;8.20;3.50;;;;;;;27.12;31.40;97928.41;5050639;28;21116;-70
2022/06/14 09:04:08;;;;;;;6.77;3.23;;;;;;;27.25;30.28;97932.63;5045981;28;20463;-70
2022/06/14 09:06:36;;;;;;;4.10;2.80;;;;;;;27.34;29.95;97933.91;5043597;28;20887;-71
2022/06/14 09:09:23;;;;;;;9.23;3.50;;;;;;;27.53;29.96;97934.50;5050587;28;20864;-72
2022/06/14 09:12:09;;;;;;;3.97;2.67;;;;;;;27.59;29.73;97927.31;5057215;28;20452;-70
2022/06/14 09:14:46;;;;;;;5.13;3.30;;;;;;;27.27;29.08;97927.84;5043619;28;20504;-70
2022/06/14 09:17:27;;;;;;;6.47;3.30;;;;;;;27.40;30.38;97921.34;5050555;28;20439;-68
2022/06/14 09:20:28;;;;;;;9.03;3.50;;;;;;;27.66;29.87;97916.38;5050747;28;20417;-70
2022/06/14 09:22:59;;;;;;;6.63;3.43;;;;;;;27.51;28.55;97908.88;5042254;28;20429;-71
2022/06/14 09:25:57;;;;;;;7.23;3.50;;;;;;;27.62;29.24;97910.66;5054020;28;20483;-70
2022/06/14 09:28:53;;;;;;;7.07;3.13;;;;;;;27.71;28.97;97909.19;5053834;28;20468;-71
2022/06/14 09:31:25;;;;;;;4.53;3.27;;;;;;;27.95;28.83;97895.53;5053967;28;20438;-70
2022/06/14 09:34:16;;;;;;;5.70;3.10;;;;;;;28.24;28.11;97908.03;5053807;28;20433;-71
2022/06/14 09:37:03;;;;;;;5.00;2.37;;;;;;;28.32;26.26;97896.81;5054236;28;20426;-69
2022/06/14 09:39:47;;;;;;;8.33;3.40;;;;;;;28.33;26.71;97904.66;5045901;28;20488;-71
2022/06/14 09:42:41;;;;;;;6.80;3.10;;;;;;;28.57;27.85;97893.63;5037051;28;20468;-71
2022/06/14 09:45:14;;;;;;;7.17;2.97;;;;;;;28.59;26.28;97886.09;5053161;28;20418;-71
2022/06/14 09:47:55;;;;;;;5.83;2.90;;;;;;;28.67;26.68;97893.72;5053352;28;20426;-71
2022/06/14 09:50:33;;;;;;;5.10;3.07;;;;;;;28.83;26.31;97895.78;5053371;28;20558;-73
2022/06/14 09:53:26;;;;;;;5.93;3.07;;;;;;;29.00;26.31;97885.69;5053707;28;20418;-71
2022/06/14 09:55:58;;;;;;;7.40;3.30;;;;;;;29.18;26.21;97887.22;5049519;28;20416;-71
2022/06/14 09:58:39;;;;;;;5.63;2.77;;;;;;;29.05;25.09;97895.72;5052417;28;20827;-71
2022/06/14 10:01:24;;;;;;;5.77;2.70;;;;;;;29.19;24.18;97894.22;5053722;28;20464;-71
2022/06/14 10:04:10;;;;;;;9.50;3.03;;;;;;;29.27;24.94;97882.97;5052157;28;20927;-71
2022/06/14 10:06:54;;;;;;;20.17;3.23;;;;;;;29.28;24.93;97887.28;5044759;28;20436;-69
2022/06/14 10:09:44;;;;;;;8.27;2.77;;;;;;;29.32;24.71;97881.38;5053062;28;20519;-71
2022/06/14 10:12:31;;;;;;;4.83;3.20;;;;;;;29.22;24.50;97874.84;5052960;28;20452;-70
2022/06/14 10:15:09;;;;;;;5.77;2.63;;;;;;;29.20;24.84;97876.97;5052910;28;20912;-70
2022/06/14 10:17:49;;;;;;;4.90;2.50;;;;;;;29.31;24.94;97868.94;5045830;28;20838;-71
2022/06/14 10:20:21;;;;;;;7.03;2.53;;;;;;;29.19;25.19;97867.25;5052896;28;20418;-71
2022/06/14 10:23:17;;;;;;;16.23;3.00;;;;;;;29.11;24.88;97865.03;5052839;28;20421;-69
2022/06/14 10:29:06;;;;;;;8.17;3.10;;;;;;;29.44;26.08;97868.53;5049668;28;20461;-70
2022/06/14 10:31:41;;;;;;;8.00;2.87;;;;;;;29.43;25.67;97858.81;5045262;28;20838;-70
2022/06/14 10:34:15;;;;;;;4.53;2.67;;;;;;;29.61;25.18;97862.19;5051242;28;20474;-70
2022/06/14 10:36:40;;;;;;;6.07;2.43;;;;;;;29.65;25.15;97868.66;5033079;28;20734;-70
2022/06/14 10:39:05;;;;;;;5.93;2.67;;;;;;;29.74;25.61;97867.09;5052671;28;20464;-71
2022/06/14 10:41:40;;;;;;;4.83;2.70;;;;;;;29.87;25.26;97855.03;5053802;28;20709;-70
2022/06/14 10:44:24;;;;;;;8.13;3.20;;;;;;;29.58;24.11;97861.63;5051857;28;20186;-70
2022/06/14 10:47:02;;;;;;;9.57;2.80;;;;;;;29.74;24.82;97864.38;5052597;28;20429;-71
2022/06/14 10:49:37;;;;;;;5.23;2.80;;;;;;;29.99;24.59;97854.84;5044670;28;20523;-70
2022/06/14 10:52:16;;;;;;;6.60;3.10;;;;;;;29.78;25.01;97852.00;5052350;28;20441;-71
2022/06/14 10:54:51;;;;;;;5.10;2.63;;;;;;;30.03;24.89;97848.66;5050635;28;20982;-70
2022/06/14 10:57:38;;;;;;;5.93;2.80;;;;;;;30.18;24.18;97853.31;5034150;28;20468;-72
2022/06/14 11:00:48;;;;;;;10.40;3.03;;;;;;;30.42;24.56;97839.31;5052288;28;20422;-70
2022/06/14 11:03:25;;;;;;;4.67;2.13;;;;;;;30.42;23.97;97839.31;5041592;28;20464;-70
2022/06/14 11:06:01;;;;;;;4.33;2.60;;;;;;;30.44;23.10;97849.84;5051153;28;20433;-69
2022/06/14 11:08:54;;;;;;;4.33;2.70;;;;;;;30.44;23.00;97834.47;5043766;28;21037;-69
2022/06/14 11:11:39;;;;;;;7.33;2.77;;;;;;;30.29;23.87;97839.81;5051816;28;20488;-70
2022/06/14 11:14:29;;;;;;;4.63;2.50;;;;;;;29.97;23.24;97827.28;5052005;28;20913;-70
2022/06/14 11:17:32;;;;;;;5.13;2.97;;;;;;;30.17;23.81;97832.75;5050723;28;20430;-71
2022/06/14 11:20:34;;;;;;;4.70;2.90;;;;;;;30.39;23.94;97836.34;5048274;28;20425;-70
2022/06/14 11:23:11;;;;;;;4.43;2.53;;;;;;;30.60;24.01;97835.31;5047807;28;20475;-69
2022/06/14 11:25:51;;;;;;;6.60;3.40;;;;;;;30.79;23.96;97832.13;5043591;28;20425;-70
2022/06/14 11:28:44;;;;;;;4.40;3.00;;;;;;;30.99;23.46;97823.19;5050203;28;20495;-71
2022/06/14 11:31:32;;;;;;;4.20;2.77;;;;;;;31.17;23.58;97821.88;5050406;28;20492;-70
2022/06/14 11:34:33;;;;;;;3.60;2.53;;;;;;;30.97;22.82;97817.25;5051487;28;20437;-71
2022/06/14 11:37:04;;;;;;;5.57;2.50;;;;;;;30.98;22.63;97812.63;5031455;28;20418;-69
2022/06/14 11:39:38;;;;;;;5.80;2.50;;;;;;;30.46;22.94;97809.84;5039984;28;20418;-69
2022/06/14 11:42:09;;;;;;;5.20;2.60;;;;;;;30.61;23.21;97815.31;5052310;28;20878;-71
2022/06/14 11:45:00;;;;;;;8.23;2.70;;;;;;;30.59;23.58;97816.69;5050351;28;20433;-70
2022/06/14 11:47:53;;;;;;;6.77;2.60;;;;;;;30.90;24.42;97809.41;5051358;28;20534;-70
2022/06/14 11:50:33;;;;;;;7.17;3.03;;;;;;;31.05;23.23;97802.34;5045821;28;20929;-70
2022/06/14 11:53:16;;;;;;;3.93;2.50;;;;;;;31.06;23.24;97804.78;5050426;28;20960;-71
2022/06/14 11:55:53;;;;;;;4.23;2.87;;;;;;;30.97;23.76;97811.00;5050544;28;20426;-70
2022/06/14 11:58:30;;;;;;;4.50;3.30;;;;;;;31.15;23.58;97809.66;5050842;28;20811;-71
2022/06/14 12:01:07;;;;;;;5.30;2.63;;;;;;;31.15;23.59;97812.38;5049944;28;20441;-71
2022/06/14 12:04:00;;;;;;;3.33;2.73;;;;;;;31.16;22.36;97801.28;5051096;28;20422;-71
2022/06/14 12:06:36;;;;;;;4.17;2.90;;;;;;;31.39;23.57;97799.88;5049631;28;20479;-71
2022/06/14 12:09:25;;;;;;;6.30;2.70;;;;;;;31.26;22.82;97800.44;5050959;28;20514;-71
2022/06/14 12:11:56;;;;;;;4.43;2.80;;;;;;;30.75;22.81;97791.25;5040609;28;20863;-71
2022/06/14 12:14:28;;;;;;;10.73;2.90;;;;;;;30.76;22.98;97786.66;5051243;28;20811;-71
2022/06/14 12:17:20;;;;;;;4.10;2.60;;;;;;;30.65;23.54;97788.53;5050916;28;20422;-71
2022/06/14 12:19:53;;;;;;;4.60;2.97;;;;;;;30.97;23.55;97784.78;5044430;28;20799;-70
2022/06/14 12:22:34;;;;;;;6.17;2.87;;;;;;;30.70;23.31;97779.63;5049370;28;20536;-71
2022/06/14 12:27:58;;;;;;;2.90;2.37;;;;;;;31.08;23.30;97785.56;5045042;28;20430;-71
2022/06/14 12:30:25;;;;;;;2.70;2.07;;;;;;;31.06;21.95;97788.53;5050526;28;20495;-71
2022/06/14 12:33:16;;;;;;;13.30;2.77;;;;;;;30.68;21.81;97781.81;5051239;28;20493;-72
2022/06/14 12:36:05;;;;;;;4.77;2.60;;;;;;;30.53;22.87;97777.97;5046564;28;20433;-71